createdAt,value
2023-04-18T14:21:29.181Z,30.30
2023-04-18T14:23:56.539Z,30.09
2023-04-18T14:26:23.824Z,31.48
2023-04-18T14:28:51.233Z,31.28
2023-04-18T14:31:18.592Z,31.19
2023-04-18T14:33:46.282Z,31.01
2023-04-18T14:36:15.141Z,31.64
2023-04-18T14:38:42.526Z,30.31
2023-04-18T14:41:09.671Z,32.79
2023-04-18T14:43:37.005Z,33.06
2023-04-18T14:46:10.492Z,32.11
2023-04-18T14:48:37.618Z,32.11
2023-04-18T14:51:04.740Z,31.01
2023-04-18T14:53:31.830Z,32.19
2023-04-18T14:55:58.916Z,33.87
2023-04-18T14:58:26.081Z,36.33
2023-04-18T15:00:53.164Z,32.72
2023-04-18T15:03:20.408Z,31.49
2023-04-18T15:05:48.972Z,29.16
2023-04-18T15:08:16.223Z,28.35
2023-04-18T15:10:44.448Z,25.14
2023-04-18T15:13:11.570Z,27.65
2023-04-18T15:15:39.779Z,24.14
2023-04-18T15:18:08.517Z,22.88
2023-04-18T15:20:37.112Z,21.76
2023-04-18T15:23:04.319Z,23.59
2023-04-18T15:25:31.509Z,24.23
2023-04-18T15:27:58.685Z,23.76
2023-04-18T15:30:25.876Z,25.72
2023-04-18T15:32:53.976Z,26.36
2023-04-18T15:35:21.239Z,25.59
2023-04-18T15:37:49.205Z,24.29
2023-04-18T15:40:18.130Z,25.47
2023-04-18T15:42:45.983Z,25.47
2023-04-18T15:45:13.252Z,26.84
2023-04-18T15:47:41.372Z,27.38
2023-04-18T15:50:09.134Z,29.92
2023-04-18T15:52:36.625Z,31.43
2023-04-18T15:55:04.986Z,33.53
2023-04-18T15:57:32.500Z,34.30
2023-04-18T15:59:59.788Z,36.24
2023-04-18T16:02:27.186Z,38.95
2023-04-18T16:04:54.500Z,39.98
2023-04-18T16:07:21.768Z,41.14
2023-04-18T16:09:48.898Z,41.60
2023-04-18T16:12:16.276Z,42.38
2023-04-18T16:14:43.400Z,43.22
2023-04-18T16:17:10.486Z,45.20
2023-04-18T16:19:38.873Z,45.17
2023-04-18T16:22:07.089Z,45.41
2023-04-18T16:24:34.297Z,46.14
2023-04-18T16:27:01.478Z,47.26
2023-04-18T16:29:28.677Z,47.24
2023-04-18T16:36:27.482Z,48.48
2023-04-18T16:38:54.615Z,48.70
2023-04-18T16:41:21.698Z,49.97
2023-04-18T16:43:48.817Z,50.77
2023-04-18T16:46:16.097Z,51.64
2023-04-18T16:48:45.147Z,52.56
2023-04-18T16:51:13.122Z,52.41
2023-04-18T16:53:40.339Z,52.47
2023-04-18T16:56:08.899Z,52.40
2023-04-18T16:58:36.079Z,52.42
2023-04-18T17:01:03.281Z,52.62
2023-04-18T17:03:30.526Z,53.22
2023-04-18T17:05:57.803Z,53.07
2023-04-18T17:08:27.011Z,53.21
2023-04-18T17:10:54.682Z,52.85
2023-04-18T17:13:26.691Z,53.79
2023-04-18T17:15:53.989Z,53.21
2023-04-18T17:18:21.285Z,53.66
2023-04-18T17:20:48.370Z,55.05
2023-04-18T17:23:15.458Z,55.38
2023-04-18T17:25:42.682Z,55.84
2023-04-18T17:28:09.838Z,56.72
2023-04-18T17:30:40.005Z,57.64
2023-04-18T17:33:07.476Z,58.64
2023-04-18T17:35:34.701Z,59.82
2023-04-18T17:38:02.004Z,60.71
2023-04-18T17:40:29.109Z,61.95
2023-04-18T17:42:56.611Z,61.79
2023-04-18T17:45:24.061Z,61.96
2023-04-18T17:47:51.310Z,62.17
2023-04-18T17:50:18.544Z,63.00
2023-04-18T17:52:46.442Z,63.58
2023-04-18T17:55:13.755Z,64.35
2023-04-18T17:57:40.901Z,65.30
2023-04-18T18:00:11.562Z,65.88
2023-04-18T18:02:42.392Z,67.59
2023-04-18T18:05:16.582Z,67.78
2023-04-18T18:07:47.503Z,68.13
2023-04-18T18:10:22.264Z,68.90
2023-04-18T18:12:49.696Z,68.70
2023-04-18T18:15:17.988Z,69.51
2023-04-18T18:17:45.137Z,68.73
2023-04-18T18:20:12.527Z,68.83
2023-04-18T18:22:39.624Z,68.91
2023-04-18T18:25:07.355Z,69.01
2023-04-18T18:27:34.479Z,68.79
2023-04-18T18:30:01.912Z,68.50
2023-04-18T18:32:29.135Z,67.96
2023-04-18T18:34:56.313Z,68.84
2023-04-18T18:37:25.418Z,68.53
2023-04-18T18:39:54.528Z,69.28
2023-04-18T18:42:22.126Z,69.10
2023-04-18T18:44:49.230Z,69.33
2023-04-18T18:47:20.169Z,69.38
2023-04-18T18:49:48.652Z,68.92
2023-04-18T18:52:15.994Z,68.61
2023-04-18T18:54:43.134Z,68.87
2023-04-18T18:57:10.250Z,67.97
2023-04-18T18:59:37.340Z,67.43
2023-04-18T19:02:04.597Z,68.73
2023-04-18T19:04:32.351Z,68.36
2023-04-18T19:06:59.653Z,68.45
2023-04-18T19:09:27.303Z,68.89
2023-04-18T19:11:55.046Z,69.51
2023-04-18T19:14:22.255Z,70.38
2023-04-18T19:16:49.816Z,70.67
2023-04-18T19:19:17.456Z,70.61
2023-04-18T19:21:47.436Z,70.91
2023-04-18T19:24:14.779Z,71.77
2023-04-18T19:26:42.305Z,71.92
2023-04-18T19:29:10.189Z,72.08
2023-04-18T19:31:37.334Z,72.30
2023-04-18T19:34:04.572Z,71.93
2023-04-18T19:36:32.088Z,71.74
2023-04-18T19:38:59.257Z,71.46
2023-04-18T19:41:26.566Z,70.66
2023-04-18T19:43:53.679Z,71.02
2023-04-18T19:46:20.807Z,70.81
2023-04-18T19:48:47.925Z,71.29
2023-04-18T19:51:15.023Z,70.90
2023-04-18T19:53:42.132Z,70.85
2023-04-18T19:56:11.181Z,71.30
2023-04-18T19:58:44.981Z,72.28
2023-04-18T20:01:13.914Z,72.92
2023-04-18T20:03:41.726Z,73.76
2023-04-18T20:06:09.231Z,73.45
2023-04-18T20:08:45.084Z,74.14
2023-04-18T20:11:16.330Z,75.02
2023-04-18T20:13:43.518Z,75.02
2023-04-18T20:16:12.152Z,75.11
2023-04-18T20:18:41.731Z,74.61
2023-04-18T20:21:11.526Z,74.41
2023-04-18T20:23:41.958Z,74.81
2023-04-18T20:26:09.312Z,75.84
2023-04-18T20:28:37.821Z,75.31
2023-04-18T20:31:05.133Z,75.77
2023-04-18T20:33:32.866Z,76.43
2023-04-18T20:36:00.004Z,76.50
2023-04-18T20:38:29.377Z,76.63
2023-04-18T20:40:58.647Z,76.16
2023-04-18T20:43:26.722Z,76.00
2023-04-18T20:45:54.525Z,76.17
2023-04-18T20:48:21.797Z,76.41
2023-04-18T20:50:51.397Z,76.88
2023-04-18T20:53:26.037Z,76.50
2023-04-18T20:55:53.183Z,77.17
2023-04-18T20:58:20.644Z,77.20
2023-04-18T21:00:48.872Z,76.84
2023-04-18T21:03:16.789Z,77.19
2023-04-18T21:05:44.829Z,77.07
2023-04-18T21:08:12.086Z,77.04
2023-04-18T21:10:39.695Z,76.24
2023-04-18T21:13:07.588Z,76.85
2023-04-18T21:15:35.584Z,77.19
2023-04-18T21:18:02.913Z,77.50
2023-04-18T21:20:30.140Z,77.35
2023-04-18T21:22:57.301Z,76.44
2023-04-18T21:25:24.429Z,76.69
2023-04-18T21:27:51.806Z,77.72
2023-04-18T21:30:19.586Z,77.71
2023-04-18T21:32:48.934Z,77.80
2023-04-18T21:35:19.373Z,79.06
2023-04-18T21:37:47.321Z,78.65
2023-04-18T21:40:14.703Z,79.24
2023-04-18T21:42:42.027Z,79.71
2023-04-18T21:45:10.840Z,80.75
2023-04-18T21:47:38.349Z,81.32
2023-04-18T21:50:06.111Z,81.81
2023-04-18T21:52:33.289Z,82.38
2023-04-18T21:55:00.496Z,83.07
2023-04-18T21:57:27.693Z,82.97
2023-04-18T21:59:56.963Z,83.44
2023-04-18T22:02:25.345Z,83.42
2023-04-18T22:04:52.652Z,84.02
2023-04-18T22:07:19.996Z,84.25
2023-04-18T22:09:47.200Z,84.20
2023-04-18T22:12:14.314Z,84.33
2023-04-18T22:14:44.480Z,84.52
2023-04-18T22:17:11.601Z,85.05
2023-04-18T22:19:39.592Z,85.02
2023-04-18T22:22:06.722Z,84.60
2023-04-18T22:24:33.832Z,84.20
2023-04-18T22:27:01.251Z,84.16
2023-04-18T22:29:28.401Z,83.71
2023-04-18T22:31:55.690Z,84.20
2023-04-18T22:34:22.760Z,84.08
2023-04-18T22:36:49.853Z,84.82
2023-04-18T22:39:16.939Z,85.32
2023-04-18T22:41:44.076Z,85.50
2023-04-18T22:44:11.169Z,85.76
2023-04-18T22:46:39.273Z,85.88
2023-04-18T22:49:06.384Z,85.14
2023-04-18T22:51:34.139Z,83.99
2023-04-18T22:54:01.233Z,83.31
2023-04-18T22:56:28.440Z,84.01
2023-04-18T22:58:55.580Z,83.14
2023-04-18T23:01:22.691Z,84.51
2023-04-18T23:03:50.015Z,84.00
2023-04-18T23:06:17.256Z,83.67
2023-04-18T23:08:44.338Z,84.40
2023-04-18T23:11:11.521Z,84.08
2023-04-18T23:13:38.601Z,83.98
2023-04-18T23:16:06.266Z,83.50
2023-04-18T23:18:33.432Z,82.77
2023-04-18T23:21:00.998Z,83.13
2023-04-18T23:23:28.101Z,82.09
2023-04-18T23:25:55.329Z,82.22
2023-04-18T23:28:22.599Z,81.65
2023-04-18T23:30:50.259Z,81.88
2023-04-18T23:33:17.419Z,82.18
2023-04-18T23:35:44.519Z,82.27
2023-04-18T23:38:11.720Z,82.44
2023-04-18T23:40:38.796Z,82.51
2023-04-18T23:43:05.907Z,83.12
2023-04-18T23:45:33.034Z,83.27
2023-04-18T23:48:00.247Z,83.50
2023-04-18T23:50:27.494Z,83.66
2023-04-18T23:52:54.569Z,84.02
2023-04-18T23:55:21.809Z,83.64
2023-04-18T23:57:48.891Z,83.46
